sensor_id;sensor_type;location;lat;lon;timestamp;pressure;altitude;pressure_sealevel;temperature;humidity
34237;BME280;20501;45.956;13.632;2023-04-07T00:01:17;100731.53;;;11.40;46.57
34237;BME280;20501;45.956;13.632;2023-04-07T00:03:43;100732.69;;;8.64;49.94
34237;BME280;20501;45.956;13.632;2023-04-07T00:06:08;100736.03;;;9.98;49.79
34237;BME280;20501;45.956;13.632;2023-04-07T00:08:34;100732.59;;;9.96;49.01
34237;BME280;20501;45.956;13.632;2023-04-07T00:11:00;100723.44;;;9.87;48.22
34237;BME280;20501;45.956;13.632;2023-04-07T00:13:25;100725.28;;;10.69;46.87
34237;BME280;20501;45.956;13.632;2023-04-07T00:15:51;100726.25;;;10.99;46.69
34237;BME280;20501;45.956;13.632;2023-04-07T00:18:16;100723.53;;;11.09;46.70
34237;BME280;20501;45.956;13.632;2023-04-07T00:20:42;100728.09;;;11.68;45.87
34237;BME280;20501;45.956;13.632;2023-04-07T00:23:07;100740.47;;;10.30;49.10
34237;BME280;20501;45.956;13.632;2023-04-07T00:25:32;100730.13;;;11.46;46.35
34237;BME280;20501;45.956;13.632;2023-04-07T00:27:58;100739.66;;;11.99;44.92
34237;BME280;20501;45.956;13.632;2023-04-07T00:30:23;100739.59;;;12.19;44.47
34237;BME280;20501;45.956;13.632;2023-04-07T00:32:49;100731.19;;;12.22;44.46
34237;BME280;20501;45.956;13.632;2023-04-07T00:35:16;100738.44;;;12.21;44.51
34237;BME280;20501;45.956;13.632;2023-04-07T00:37:41;100726.03;;;12.29;44.15
34237;BME280;20501;45.956;13.632;2023-04-07T00:40:07;100728.66;;;12.11;44.79
34237;BME280;20501;45.956;13.632;2023-04-07T00:42:33;100727.00;;;11.70;45.55
34237;BME280;20501;45.956;13.632;2023-04-07T00:44:59;100723.13;;;11.73;45.93
34237;BME280;20501;45.956;13.632;2023-04-07T00:47:24;100714.31;;;11.22;46.61
34237;BME280;20501;45.956;13.632;2023-04-07T00:49:50;100725.41;;;11.19;46.78
34237;BME280;20501;45.956;13.632;2023-04-07T00:52:16;100719.31;;;10.66;47.12
34237;BME280;20501;45.956;13.632;2023-04-07T00:54:42;100716.28;;;10.90;45.02
34237;BME280;20501;45.956;13.632;2023-04-07T00:57:08;100719.34;;;10.76;47.16
34237;BME280;20501;45.956;13.632;2023-04-07T00:59:34;100726.31;;;10.78;46.11
34237;BME280;20501;45.956;13.632;2023-04-07T01:02:10;100731.25;;;11.73;45.64
34237;BME280;20501;45.956;13.632;2023-04-07T01:04:42;100718.75;;;11.52;43.35
34237;BME280;20501;45.956;13.632;2023-04-07T01:07:23;100725.09;;;11.02;47.46
34237;BME280;20501;45.956;13.632;2023-04-07T01:10:00;100722.22;;;10.84;44.01
34237;BME280;20501;45.956;13.632;2023-04-07T01:15:11;100735.50;;;10.35;46.26
34237;BME280;20501;45.956;13.632;2023-04-07T01:17:48;100732.81;;;7.70;51.02
34237;BME280;20501;45.956;13.632;2023-04-07T01:20:20;100734.66;;;9.82;50.52
34237;BME280;20501;45.956;13.632;2023-04-07T01:22:53;100737.88;;;10.49;49.02
34237;BME280;20501;45.956;13.632;2023-04-07T01:25:53;100736.34;;;9.29;50.88
34237;BME280;20501;45.956;13.632;2023-04-07T01:30:53;100737.09;;;8.76;54.09
34237;BME280;20501;45.956;13.632;2023-04-07T01:33:22;100736.34;;;9.83;50.95
34237;BME280;20501;45.956;13.632;2023-04-07T01:35:48;100723.00;;;11.35;46.75
34237;BME280;20501;45.956;13.632;2023-04-07T01:38:16;100721.00;;;11.47;46.48
34237;BME280;20501;45.956;13.632;2023-04-07T01:40:42;100710.84;;;11.88;45.19
34237;BME280;20501;45.956;13.632;2023-04-07T01:43:09;100711.91;;;11.28;44.18
34237;BME280;20501;45.956;13.632;2023-04-07T01:45:36;100711.34;;;10.64;47.34
34237;BME280;20501;45.956;13.632;2023-04-07T01:48:04;100712.03;;;11.66;45.93
34237;BME280;20501;45.956;13.632;2023-04-07T01:50:30;100706.44;;;12.07;45.15
34237;BME280;20501;45.956;13.632;2023-04-07T01:52:56;100705.19;;;11.42;45.33
34237;BME280;20501;45.956;13.632;2023-04-07T01:55:22;100710.91;;;11.29;45.75
34237;BME280;20501;45.956;13.632;2023-04-07T01:57:47;100720.00;;;9.42;47.54
34237;BME280;20501;45.956;13.632;2023-04-07T02:00:13;100717.00;;;9.99;48.22
34237;BME280;20501;45.956;13.632;2023-04-07T02:02:43;100706.41;;;10.79;46.92
34237;BME280;20501;45.956;13.632;2023-04-07T02:05:12;100713.72;;;11.57;45.67
34237;BME280;20501;45.956;13.632;2023-04-07T02:07:44;100712.72;;;11.88;44.93
34237;BME280;20501;45.956;13.632;2023-04-07T02:10:12;100714.94;;;12.12;44.39
34237;BME280;20501;45.956;13.632;2023-04-07T02:12:40;100714.38;;;12.18;44.06
34237;BME280;20501;45.956;13.632;2023-04-07T02:15:10;100705.16;;;11.91;44.61
34237;BME280;20501;45.956;13.632;2023-04-07T02:17:38;100714.94;;;10.13;45.86
34237;BME280;20501;45.956;13.632;2023-04-07T02:20:06;100703.28;;;10.12;46.22
34237;BME280;20501;45.956;13.632;2023-04-07T02:22:33;100712.56;;;10.19;46.75
34237;BME280;20501;45.956;13.632;2023-04-07T02:24:59;100703.38;;;9.58;45.84
34237;BME280;20501;45.956;13.632;2023-04-07T02:27:24;100699.03;;;9.67;48.85
34237;BME280;20501;45.956;13.632;2023-04-07T02:29:50;100692.66;;;10.42;47.17
34237;BME280;20501;45.956;13.632;2023-04-07T02:32:15;100696.59;;;10.68;47.18
34237;BME280;20501;45.956;13.632;2023-04-07T02:34:42;100700.72;;;10.11;45.14
34237;BME280;20501;45.956;13.632;2023-04-07T02:37:07;100704.41;;;10.10;45.15
34237;BME280;20501;45.956;13.632;2023-04-07T02:39:32;100688.66;;;9.09;47.70
34237;BME280;20501;45.956;13.632;2023-04-07T02:41:58;100695.47;;;10.09;49.59
34237;BME280;20501;45.956;13.632;2023-04-07T02:44:23;100686.41;;;9.68;49.49
34237;BME280;20501;45.956;13.632;2023-04-07T02:46:48;100681.28;;;11.38;45.66
34237;BME280;20501;45.956;13.632;2023-04-07T02:49:14;100682.25;;;9.21;49.44
34237;BME280;20501;45.956;13.632;2023-04-07T02:51:39;100677.50;;;8.35;49.12
34237;BME280;20501;45.956;13.632;2023-04-07T02:54:05;100683.13;;;8.66;50.74
34237;BME280;20501;45.956;13.632;2023-04-07T02:56:30;100675.66;;;7.90;50.80
34237;BME280;20501;45.956;13.632;2023-04-07T02:58:56;100679.31;;;7.89;51.70
34237;BME280;20501;45.956;13.632;2023-04-07T03:01:22;100676.91;;;7.98;53.33
34237;BME280;20501;45.956;13.632;2023-04-07T03:03:47;100678.59;;;8.44;52.53
34237;BME280;20501;45.956;13.632;2023-04-07T03:06:13;100676.09;;;7.62;50.23
34237;BME280;20501;45.956;13.632;2023-04-07T03:08:38;100668.94;;;8.64;50.37
34237;BME280;20501;45.956;13.632;2023-04-07T03:11:04;100667.94;;;8.65;49.48
34237;BME280;20501;45.956;13.632;2023-04-07T03:13:29;100668.34;;;8.49;51.48
34237;BME280;20501;45.956;13.632;2023-04-07T03:15:56;100671.13;;;9.78;48.43
34237;BME280;20501;45.956;13.632;2023-04-07T03:18:22;100683.44;;;10.23;48.11
34237;BME280;20501;45.956;13.632;2023-04-07T03:20:50;100673.03;;;11.20;45.81
34237;BME280;20501;45.956;13.632;2023-04-07T03:23:17;100663.47;;;11.55;44.84
34237;BME280;20501;45.956;13.632;2023-04-07T03:25:42;100669.16;;;11.61;43.85
34237;BME280;20501;45.956;13.632;2023-04-07T03:28:08;100665.47;;;11.63;43.80
34237;BME280;20501;45.956;13.632;2023-04-07T03:30:33;100671.94;;;11.89;44.43
34237;BME280;20501;45.956;13.632;2023-04-07T03:32:58;100657.56;;;11.89;44.60
34237;BME280;20501;45.956;13.632;2023-04-07T03:35:24;100664.03;;;11.58;44.85
34237;BME280;20501;45.956;13.632;2023-04-07T03:37:49;100668.03;;;11.44;44.81
34237;BME280;20501;45.956;13.632;2023-04-07T03:40:15;100677.41;;;10.10;47.58
34237;BME280;20501;45.956;13.632;2023-04-07T03:42:40;100680.97;;;10.92;46.74
34237;BME280;20501;45.956;13.632;2023-04-07T03:45:06;100686.41;;;10.51;45.35
34237;BME280;20501;45.956;13.632;2023-04-07T03:47:31;100689.81;;;11.53;45.36
34237;BME280;20501;45.956;13.632;2023-04-07T03:49:57;100680.72;;;11.14;45.96
34237;BME280;20501;45.956;13.632;2023-04-07T03:52:22;100689.47;;;10.77;43.84
34237;BME280;20501;45.956;13.632;2023-04-07T03:54:48;100688.53;;;11.08;46.13
34237;BME280;20501;45.956;13.632;2023-04-07T03:57:13;100682.84;;;11.60;44.91
34237;BME280;20501;45.956;13.632;2023-04-07T03:59:38;100678.72;;;10.46;47.12
34237;BME280;20501;45.956;13.632;2023-04-07T04:02:04;100685.28;;;10.53;47.12
34237;BME280;20501;45.956;13.632;2023-04-07T04:04:29;100691.91;;;7.78;49.98
34237;BME280;20501;45.956;13.632;2023-04-07T04:06:55;100691.56;;;8.16;51.03
34237;BME280;20501;45.956;13.632;2023-04-07T04:09:20;100690.47;;;8.76;52.64
34237;BME280;20501;45.956;13.632;2023-04-07T04:11:45;100696.75;;;9.30;50.72
34237;BME280;20501;45.956;13.632;2023-04-07T04:14:11;100694.59;;;10.09;49.20
34237;BME280;20501;45.956;13.632;2023-04-07T04:16:36;100688.91;;;9.38;49.77
34237;BME280;20501;45.956;13.632;2023-04-07T04:19:02;100688.81;;;7.24;51.47
34237;BME280;20501;45.956;13.632;2023-04-07T04:21:27;100697.94;;;6.73;53.62
34237;BME280;20501;45.956;13.632;2023-04-07T04:23:52;100704.47;;;5.67;59.10
34237;BME280;20501;45.956;13.632;2023-04-07T04:26:18;100702.00;;;7.03;54.47
34237;BME280;20501;45.956;13.632;2023-04-07T04:28:44;100698.91;;;6.09;55.23
34237;BME280;20501;45.956;13.632;2023-04-07T04:31:10;100694.66;;;7.29;53.36
34237;BME280;20501;45.956;13.632;2023-04-07T04:33:35;100703.38;;;6.84;57.01
34237;BME280;20501;45.956;13.632;2023-04-07T04:36:00;100703.22;;;7.23;53.65
34237;BME280;20501;45.956;13.632;2023-04-07T04:38:26;100699.84;;;7.08;53.00
34237;BME280;20501;45.956;13.632;2023-04-07T04:40:51;100697.19;;;6.33;54.94
34237;BME280;20501;45.956;13.632;2023-04-07T04:43:17;100704.91;;;6.38;55.37
34237;BME280;20501;45.956;13.632;2023-04-07T04:45:42;100710.28;;;7.24;53.02
34237;BME280;20501;45.956;13.632;2023-04-07T04:48:08;100710.03;;;7.98;51.19
34237;BME280;20501;45.956;13.632;2023-04-07T04:50:33;100702.47;;;8.15;53.07
34237;BME280;20501;45.956;13.632;2023-04-07T04:53:00;100707.56;;;10.15;48.55
34237;BME280;20501;45.956;13.632;2023-04-07T04:55:25;100704.09;;;9.60;48.31
34237;BME280;20501;45.956;13.632;2023-04-07T04:57:51;100703.00;;;6.64;55.33
34237;BME280;20501;45.956;13.632;2023-04-07T05:00:16;100702.25;;;7.00;53.48
34237;BME280;20501;45.956;13.632;2023-04-07T05:02:42;100707.69;;;8.96;49.60
34237;BME280;20501;45.956;13.632;2023-04-07T05:05:07;100708.56;;;9.93;49.22
34237;BME280;20501;45.956;13.632;2023-04-07T05:07:33;100697.31;;;10.80;47.01
34237;BME280;20501;45.956;13.632;2023-04-07T05:09:58;100700.63;;;11.04;46.16
34237;BME280;20501;45.956;13.632;2023-04-07T05:12:24;100703.03;;;9.94;47.27
34237;BME280;20501;45.956;13.632;2023-04-07T05:14:49;100702.22;;;11.16;45.81
34237;BME280;20501;45.956;13.632;2023-04-07T05:17:15;100711.81;;;9.44;48.16
34237;BME280;20501;45.956;13.632;2023-04-07T05:19:41;100705.22;;;10.52;44.10
34237;BME280;20501;45.956;13.632;2023-04-07T05:22:06;100703.13;;;7.71;50.50
34237;BME280;20501;45.956;13.632;2023-04-07T05:24:31;100705.91;;;6.99;53.33
34237;BME280;20501;45.956;13.632;2023-04-07T05:26:57;100703.84;;;7.02;52.14
34237;BME280;20501;45.956;13.632;2023-04-07T05:29:22;100716.06;;;8.47;52.13
34237;BME280;20501;45.956;13.632;2023-04-07T05:31:48;100714.50;;;9.65;47.82
34237;BME280;20501;45.956;13.632;2023-04-07T05:34:13;100709.38;;;10.66;47.09
34237;BME280;20501;45.956;13.632;2023-04-07T05:36:38;100718.28;;;9.41;49.34
34237;BME280;20501;45.956;13.632;2023-04-07T05:39:04;100713.66;;;9.11;49.34
34237;BME280;20501;45.956;13.632;2023-04-07T05:41:30;100711.63;;;10.30;48.16
34237;BME280;20501;45.956;13.632;2023-04-07T05:43:55;100711.91;;;8.20;51.77
34237;BME280;20501;45.956;13.632;2023-04-07T05:46:20;100710.28;;;8.18;50.05
34237;BME280;20501;45.956;13.632;2023-04-07T05:48:46;100714.28;;;8.01;50.05
34237;BME280;20501;45.956;13.632;2023-04-07T05:51:11;100709.78;;;8.01;52.75
34237;BME280;20501;45.956;13.632;2023-04-07T05:53:36;100709.63;;;7.80;50.70
34237;BME280;20501;45.956;13.632;2023-04-07T05:56:02;100710.16;;;8.08;49.77
34237;BME280;20501;45.956;13.632;2023-04-07T05:58:27;100707.94;;;8.02;52.44
34237;BME280;20501;45.956;13.632;2023-04-07T06:00:53;100705.94;;;7.81;53.42
34237;BME280;20501;45.956;13.632;2023-04-07T06:03:18;100704.56;;;9.44;50.37
34237;BME280;20501;45.956;13.632;2023-04-07T06:05:47;100710.22;;;9.84;46.62
34237;BME280;20501;45.956;13.632;2023-04-07T06:08:12;100717.03;;;11.32;45.49
34237;BME280;20501;45.956;13.632;2023-04-07T06:10:37;100721.50;;;10.20;45.50
34237;BME280;20501;45.956;13.632;2023-04-07T06:13:05;100708.78;;;10.32;47.46
34237;BME280;20501;45.956;13.632;2023-04-07T06:15:30;100708.34;;;11.18;45.78
34237;BME280;20501;45.956;13.632;2023-04-07T06:17:56;100712.91;;;11.57;45.01
34237;BME280;20501;45.956;13.632;2023-04-07T06:20:21;100708.78;;;11.43;44.29
34237;BME280;20501;45.956;13.632;2023-04-07T06:22:47;100712.19;;;11.15;44.84
34237;BME280;20501;45.956;13.632;2023-04-07T06:25:12;100717.44;;;11.37;44.56
34237;BME280;20501;45.956;13.632;2023-04-07T06:27:38;100720.41;;;11.04;45.05
34237;BME280;20501;45.956;13.632;2023-04-07T06:30:03;100710.03;;;11.58;45.12
34237;BME280;20501;45.956;13.632;2023-04-07T06:32:29;100712.66;;;10.70;45.31
34237;BME280;20501;45.956;13.632;2023-04-07T06:34:55;100715.13;;;10.21;48.58
34237;BME280;20501;45.956;13.632;2023-04-07T06:37:21;100721.53;;;9.56;46.16
34237;BME280;20501;45.956;13.632;2023-04-07T06:39:49;100718.34;;;9.30;48.74
34237;BME280;20501;45.956;13.632;2023-04-07T06:42:14;100704.84;;;10.77;45.79
34237;BME280;20501;45.956;13.632;2023-04-07T06:44:40;100707.56;;;10.77;46.97
34237;BME280;20501;45.956;13.632;2023-04-07T06:47:05;100709.06;;;10.29;48.12
34237;BME280;20501;45.956;13.632;2023-04-07T06:49:31;100706.78;;;11.35;46.17
34237;BME280;20501;45.956;13.632;2023-04-07T06:51:56;100694.75;;;11.77;45.05
34237;BME280;20501;45.956;13.632;2023-04-07T06:54:21;100709.63;;;11.53;44.26
34237;BME280;20501;45.956;13.632;2023-04-07T06:56:47;100698.88;;;10.83;46.96
34237;BME280;20501;45.956;13.632;2023-04-07T06:59:12;100706.94;;;10.32;48.65
34237;BME280;20501;45.956;13.632;2023-04-07T07:01:37;100705.53;;;10.07;49.06
34237;BME280;20501;45.956;13.632;2023-04-07T07:04:03;100705.03;;;11.73;45.33
34237;BME280;20501;45.956;13.632;2023-04-07T07:06:30;100709.03;;;11.01;46.25
34237;BME280;20501;45.956;13.632;2023-04-07T07:08:56;100703.50;;;10.51;47.42
34237;BME280;20501;45.956;13.632;2023-04-07T07:11:21;100709.56;;;10.84;47.02
34237;BME280;20501;45.956;13.632;2023-04-07T07:13:47;100702.63;;;11.60;45.52
34237;BME280;20501;45.956;13.632;2023-04-07T07:16:12;100699.09;;;10.60;44.57
34237;BME280;20501;45.956;13.632;2023-04-07T07:18:38;100696.78;;;10.96;44.66
34237;BME280;20501;45.956;13.632;2023-04-07T07:21:03;100703.91;;;11.66;44.59
34237;BME280;20501;45.956;13.632;2023-04-07T07:23:29;100700.38;;;11.66;43.57
34237;BME280;20501;45.956;13.632;2023-04-07T07:25:55;100704.75;;;11.18;45.47
34237;BME280;20501;45.956;13.632;2023-04-07T07:28:20;100700.06;;;11.20;44.36
34237;BME280;20501;45.956;13.632;2023-04-07T07:30:46;100700.34;;;11.75;42.98
34237;BME280;20501;45.956;13.632;2023-04-07T07:33:12;100696.53;;;11.39;42.48
34237;BME280;20501;45.956;13.632;2023-04-07T07:35:37;100702.69;;;10.09;45.04
34237;BME280;20501;45.956;13.632;2023-04-07T07:38:04;100698.63;;;11.74;45.13
34237;BME280;20501;45.956;13.632;2023-04-07T07:40:29;100698.44;;;12.05;44.32
34237;BME280;20501;45.956;13.632;2023-04-07T07:42:55;100700.88;;;11.89;44.39
34237;BME280;20501;45.956;13.632;2023-04-07T07:45:20;100694.22;;;11.64;44.39
34237;BME280;20501;45.956;13.632;2023-04-07T07:47:46;100702.06;;;11.27;41.85
34237;BME280;20501;45.956;13.632;2023-04-07T07:50:11;100699.78;;;11.62;40.91
34237;BME280;20501;45.956;13.632;2023-04-07T07:52:36;100707.88;;;12.39;43.41
34237;BME280;20501;45.956;13.632;2023-04-07T07:55:02;100699.63;;;11.05;41.94
34237;BME280;20501;45.956;13.632;2023-04-07T07:57:27;100696.47;;;11.78;44.70
34237;BME280;20501;45.956;13.632;2023-04-07T07:59:55;100703.50;;;11.32;42.66
34237;BME280;20501;45.956;13.632;2023-04-07T08:02:20;100702.75;;;11.98;44.49
34237;BME280;20501;45.956;13.632;2023-04-07T08:04:45;100688.81;;;12.59;43.33
34237;BME280;20501;45.956;13.632;2023-04-07T08:07:11;100696.06;;;11.73;41.32
34237;BME280;20501;45.956;13.632;2023-04-07T08:09:37;100689.53;;;11.66;42.40
34237;BME280;20501;45.956;13.632;2023-04-07T08:12:02;100692.03;;;11.97;43.43
34237;BME280;20501;45.956;13.632;2023-04-07T08:14:28;100685.03;;;12.14;42.28
34237;BME280;20501;45.956;13.632;2023-04-07T08:16:54;100691.41;;;11.06;43.80
34237;BME280;20501;45.956;13.632;2023-04-07T08:19:19;100692.75;;;10.81;43.61
34237;BME280;20501;45.956;13.632;2023-04-07T08:21:45;100688.22;;;10.91;44.42
34237;BME280;20501;45.956;13.632;2023-04-07T08:24:10;100689.41;;;11.38;43.93
34237;BME280;20501;45.956;13.632;2023-04-07T08:26:36;100694.00;;;12.14;44.56
34237;BME280;20501;45.956;13.632;2023-04-07T08:29:01;100680.28;;;11.68;43.27
34237;BME280;20501;45.956;13.632;2023-04-07T08:31:27;100678.00;;;11.64;44.37
34237;BME280;20501;45.956;13.632;2023-04-07T08:33:52;100682.00;;;12.27;43.85
34237;BME280;20501;45.956;13.632;2023-04-07T08:36:22;100684.34;;;11.92;44.43
34237;BME280;20501;45.956;13.632;2023-04-07T08:38:48;100675.75;;;11.29;46.36
34237;BME280;20501;45.956;13.632;2023-04-07T08:41:51;100677.69;;;11.67;44.41
34237;BME280;20501;45.956;13.632;2023-04-07T08:44:10;100675.72;;;11.39;44.47
34237;BME280;20501;45.956;13.632;2023-04-07T08:46:37;100673.59;;;11.23;44.13
34237;BME280;20501;45.956;13.632;2023-04-07T08:49:07;100662.59;;;11.64;43.84
34237;BME280;20501;45.956;13.632;2023-04-07T08:51:36;100669.16;;;12.29;44.20
34237;BME280;20501;45.956;13.632;2023-04-07T08:56:27;100659.19;;;11.72;43.96
34237;BME280;20501;45.956;13.632;2023-04-07T08:58:53;100655.91;;;11.68;43.63
34237;BME280;20501;45.956;13.632;2023-04-07T09:01:19;100657.56;;;11.99;43.46
34237;BME280;20501;45.956;13.632;2023-04-07T09:03:47;100654.75;;;11.71;44.66
34237;BME280;20501;45.956;13.632;2023-04-07T09:06:13;100655.00;;;12.07;44.46
34237;BME280;20501;45.956;13.632;2023-04-07T09:08:39;100658.19;;;12.20;43.09
34237;BME280;20501;45.956;13.632;2023-04-07T09:11:04;100654.75;;;12.28;44.22
34237;BME280;20501;45.956;13.632;2023-04-07T09:13:30;100655.16;;;11.86;43.64
34237;BME280;20501;45.956;13.632;2023-04-07T09:15:57;100646.78;;;12.27;43.81
34237;BME280;20501;45.956;13.632;2023-04-07T09:18:23;100649.13;;;12.12;42.95
34237;BME280;20501;45.956;13.632;2023-04-07T09:21:03;100640.34;;;11.90;42.63
34237;BME280;20501;45.956;13.632;2023-04-07T09:23:29;100646.78;;;12.27;43.47
34237;BME280;20501;45.956;13.632;2023-04-07T09:25:56;100637.59;;;12.37;41.48
34237;BME280;20501;45.956;13.632;2023-04-07T09:28:24;100630.53;;;12.27;42.83
34237;BME280;20501;45.956;13.632;2023-04-07T09:30:52;100636.09;;;12.25;41.50
34237;BME280;20501;45.956;13.632;2023-04-07T09:33:26;100634.59;;;12.68;41.33
34237;BME280;20501;45.956;13.632;2023-04-07T09:35:52;100631.03;;;12.40;41.44
34237;BME280;20501;45.956;13.632;2023-04-07T09:38:18;100630.63;;;12.35;43.14
34237;BME280;20501;45.956;13.632;2023-04-07T09:40:43;100626.44;;;12.41;41.00
34237;BME280;20501;45.956;13.632;2023-04-07T09:43:14;100629.38;;;12.29;42.76
34237;BME280;20501;45.956;13.632;2023-04-07T09:45:40;100621.00;;;12.50;41.39
34237;BME280;20501;45.956;13.632;2023-04-07T09:48:07;100624.44;;;12.89;42.27
34237;BME280;20501;45.956;13.632;2023-04-07T09:50:41;100614.44;;;13.07;42.77
34237;BME280;20501;45.956;13.632;2023-04-07T09:53:10;100616.06;;;12.82;40.23
34237;BME280;20501;45.956;13.632;2023-04-07T09:55:39;100619.44;;;12.66;41.25
34237;BME280;20501;45.956;13.632;2023-04-07T09:58:06;100618.53;;;12.57;42.21
34237;BME280;20501;45.956;13.632;2023-04-07T10:00:31;100613.75;;;12.87;39.86
34237;BME280;20501;45.956;13.632;2023-04-07T10:02:57;100602.91;;;13.05;40.13
34237;BME280;20501;45.956;13.632;2023-04-07T10:05:24;100597.72;;;12.76;38.83
34237;BME280;20501;45.956;13.632;2023-04-07T10:07:49;100596.63;;;12.87;38.96
34237;BME280;20501;45.956;13.632;2023-04-07T10:10:15;100598.03;;;13.09;39.49
34237;BME280;20501;45.956;13.632;2023-04-07T10:12:41;100598.78;;;13.01;40.80
34237;BME280;20501;45.956;13.632;2023-04-07T10:15:07;100594.53;;;12.80;38.52
34237;BME280;20501;45.956;13.632;2023-04-07T10:17:35;100589.50;;;13.04;40.47
34237;BME280;20501;45.956;13.632;2023-04-07T10:20:03;100584.91;;;13.22;39.64
34237;BME280;20501;45.956;13.632;2023-04-07T10:22:30;100580.78;;;13.36;37.34
34237;BME280;20501;45.956;13.632;2023-04-07T10:25:01;100585.28;;;13.45;38.42
34237;BME280;20501;45.956;13.632;2023-04-07T10:27:32;100581.06;;;13.51;36.93
34237;BME280;20501;45.956;13.632;2023-04-07T10:29:59;100581.06;;;13.51;39.18
34237;BME280;20501;45.956;13.632;2023-04-07T10:32:24;100569.56;;;13.57;36.33
34237;BME280;20501;45.956;13.632;2023-04-07T10:37:18;100569.09;;;13.62;36.95
34237;BME280;20501;45.956;13.632;2023-04-07T10:39:47;100566.72;;;13.59;36.72
34237;BME280;20501;45.956;13.632;2023-04-07T10:45:05;100555.84;;;13.59;36.43
34237;BME280;20501;45.956;13.632;2023-04-07T10:47:32;100561.38;;;13.49;35.35
34237;BME280;20501;45.956;13.632;2023-04-07T10:50:19;100562.22;;;13.76;36.35
34237;BME280;20501;45.956;13.632;2023-04-07T10:52:47;100552.59;;;13.55;36.45
34237;BME280;20501;45.956;13.632;2023-04-07T10:55:43;100559.19;;;13.53;37.56
34237;BME280;20501;45.956;13.632;2023-04-07T10:58:24;100560.63;;;13.65;37.32
34237;BME280;20501;45.956;13.632;2023-04-07T11:03:23;100552.75;;;13.54;36.66
34237;BME280;20501;45.956;13.632;2023-04-07T11:05:48;100564.47;;;13.54;38.00
34237;BME280;20501;45.956;13.632;2023-04-07T11:08:14;100552.81;;;13.62;39.20
34237;BME280;20501;45.956;13.632;2023-04-07T11:10:39;100553.97;;;13.59;39.01
34237;BME280;20501;45.956;13.632;2023-04-07T11:13:11;100550.44;;;13.59;39.59
34237;BME280;20501;45.956;13.632;2023-04-07T11:15:37;100548.81;;;13.48;40.74
34237;BME280;20501;45.956;13.632;2023-04-07T11:18:21;100557.75;;;13.40;40.40
34237;BME280;20501;45.956;13.632;2023-04-07T11:20:53;100557.22;;;13.63;41.89
34237;BME280;20501;45.956;13.632;2023-04-07T11:23:20;100554.50;;;13.63;42.15
34237;BME280;20501;45.956;13.632;2023-04-07T11:25:48;100564.97;;;13.50;42.53
34237;BME280;20501;45.956;13.632;2023-04-07T11:28:15;100557.75;;;13.40;42.57
34237;BME280;20501;45.956;13.632;2023-04-07T11:30:45;100553.50;;;13.20;41.60
34237;BME280;20501;45.956;13.632;2023-04-07T11:33:22;100548.31;;;13.26;41.31
34237;BME280;20501;45.956;13.632;2023-04-07T11:36:01;100555.19;;;13.39;41.13
34237;BME280;20501;45.956;13.632;2023-04-07T11:38:28;100558.44;;;13.42;41.40
34237;BME280;20501;45.956;13.632;2023-04-07T11:40:55;100546.66;;;13.34;40.33
34237;BME280;20501;45.956;13.632;2023-04-07T11:43:26;100549.22;;;13.35;40.57
34237;BME280;20501;45.956;13.632;2023-04-07T11:48:33;100550.31;;;13.42;40.34
34237;BME280;20501;45.956;13.632;2023-04-07T11:50:59;100537.28;;;13.46;41.41
34237;BME280;20501;45.956;13.632;2023-04-07T11:53:31;100542.06;;;13.52;42.79
34237;BME280;20501;45.956;13.632;2023-04-07T11:56:07;100538.88;;;13.57;42.92
34237;BME280;20501;45.956;13.632;2023-04-07T11:58:34;100538.19;;;13.55;43.26
34237;BME280;20501;45.956;13.632;2023-04-07T12:01:02;100544.84;;;13.60;41.97
34237;BME280;20501;45.956;13.632;2023-04-07T12:03:31;100530.47;;;13.68;41.68
34237;BME280;20501;45.956;13.632;2023-04-07T12:05:58;100540.59;;;13.58;42.12
34237;BME280;20501;45.956;13.632;2023-04-07T12:08:50;100539.34;;;13.78;40.55
34237;BME280;20501;45.956;13.632;2023-04-07T12:11:15;100539.94;;;13.64;40.14
34237;BME280;20501;45.956;13.632;2023-04-07T12:13:40;100533.41;;;13.83;40.85
34237;BME280;20501;45.956;13.632;2023-04-07T12:16:06;100543.22;;;13.76;42.56
34237;BME280;20501;45.956;13.632;2023-04-07T12:18:32;100535.19;;;13.66;43.06
34237;BME280;20501;45.956;13.632;2023-04-07T12:20:57;100540.09;;;13.62;44.03
34237;BME280;20501;45.956;13.632;2023-04-07T12:23:23;100530.94;;;13.64;43.07
34237;BME280;20501;45.956;13.632;2023-04-07T12:25:48;100516.84;;;13.60;42.82
34237;BME280;20501;45.956;13.632;2023-04-07T12:28:14;100522.34;;;13.76;42.64
34237;BME280;20501;45.956;13.632;2023-04-07T12:30:39;100522.34;;;13.76;42.13
34237;BME280;20501;45.956;13.632;2023-04-07T12:33:05;100518.31;;;13.81;43.44
34237;BME280;20501;45.956;13.632;2023-04-07T12:35:30;100526.59;;;13.79;42.47
34237;BME280;20501;45.956;13.632;2023-04-07T12:37:56;100517.72;;;13.69;42.70
34237;BME280;20501;45.956;13.632;2023-04-07T12:40:22;100515.16;;;13.59;42.29
34237;BME280;20501;45.956;13.632;2023-04-07T12:42:48;100525.72;;;13.70;42.13
34237;BME280;20501;45.956;13.632;2023-04-07T12:45:13;100512.81;;;13.72;40.78
34237;BME280;20501;45.956;13.632;2023-04-07T12:47:39;100522.28;;;13.60;41.80
34237;BME280;20501;45.956;13.632;2023-04-07T12:50:05;100512.44;;;13.59;41.08
34237;BME280;20501;45.956;13.632;2023-04-07T12:52:30;100511.81;;;13.73;41.85
34237;BME280;20501;45.956;13.632;2023-04-07T12:54:57;100513.69;;;13.73;40.85
34237;BME280;20501;45.956;13.632;2023-04-07T12:57:22;100510.25;;;13.62;41.59
34237;BME280;20501;45.956;13.632;2023-04-07T12:59:48;100514.16;;;13.68;41.55